sensor_id;sensor_type;location;lat;lon;timestamp;P1;durP1;ratioP1;P2;durP2;ratioP2
72273;SDS011;60208;48.692;8.948;2023-03-16T00:00:43;12.35;;;8.77;;
72273;SDS011;60208;48.692;8.948;2023-03-16T00:03:10;11.77;;;8.88;;
72273;SDS011;60208;48.692;8.948;2023-03-16T00:05:36;12.70;;;9.05;;
72273;SDS011;60208;48.692;8.948;2023-03-16T00:08:01;11.10;;;8.63;;
72273;SDS011;60208;48.692;8.948;2023-03-16T00:10:26;10.30;;;8.32;;
72273;SDS011;60208;48.692;8.948;2023-03-16T00:12:52;10.70;;;8.50;;
72273;SDS011;60208;48.692;8.948;2023-03-16T00:15:18;11.65;;;8.35;;
72273;SDS011;60208;48.692;8.948;2023-03-16T00:17:43;13.73;;;9.20;;
72273;SDS011;60208;48.692;8.948;2023-03-16T00:20:12;12.05;;;8.88;;
72273;SDS011;60208;48.692;8.948;2023-03-16T00:22:37;11.60;;;8.68;;
72273;SDS011;60208;48.692;8.948;2023-03-16T00:25:03;12.30;;;8.80;;
72273;SDS011;60208;48.692;8.948;2023-03-16T00:27:28;12.07;;;8.48;;
72273;SDS011;60208;48.692;8.948;2023-03-16T00:29:53;10.23;;;8.40;;
72273;SDS011;60208;48.692;8.948;2023-03-16T00:32:23;11.88;;;8.18;;
72273;SDS011;60208;48.692;8.948;2023-03-16T00:34:49;10.10;;;8.10;;
72273;SDS011;60208;48.692;8.948;2023-03-16T00:37:16;11.55;;;8.50;;
72273;SDS011;60208;48.692;8.948;2023-03-16T00:39:41;10.27;;;7.97;;
72273;SDS011;60208;48.692;8.948;2023-03-16T00:42:07;10.02;;;8.18;;
72273;SDS011;60208;48.692;8.948;2023-03-16T00:44:34;10.07;;;7.85;;
72273;SDS011;60208;48.692;8.948;2023-03-16T00:47:00;9.98;;;8.00;;
72273;SDS011;60208;48.692;8.948;2023-03-16T00:49:25;10.30;;;8.05;;
72273;SDS011;60208;48.692;8.948;2023-03-16T00:51:51;9.52;;;7.78;;
72273;SDS011;60208;48.692;8.948;2023-03-16T00:54:16;8.50;;;7.50;;
72273;SDS011;60208;48.692;8.948;2023-03-16T00:56:42;9.85;;;7.47;;
72273;SDS011;60208;48.692;8.948;2023-03-16T00:59:07;9.75;;;8.15;;
72273;SDS011;60208;48.692;8.948;2023-03-16T01:01:32;11.30;;;8.25;;
72273;SDS011;60208;48.692;8.948;2023-03-16T01:03:58;10.73;;;8.70;;
72273;SDS011;60208;48.692;8.948;2023-03-16T01:06:26;10.98;;;8.68;;
72273;SDS011;60208;48.692;8.948;2023-03-16T01:08:51;11.70;;;8.50;;
72273;SDS011;60208;48.692;8.948;2023-03-16T01:11:17;12.55;;;7.93;;
72273;SDS011;60208;48.692;8.948;2023-03-16T01:13:43;11.57;;;8.18;;
72273;SDS011;60208;48.692;8.948;2023-03-16T01:16:09;9.70;;;7.90;;
72273;SDS011;60208;48.692;8.948;2023-03-16T01:18:34;9.80;;;7.38;;
72273;SDS011;60208;48.692;8.948;2023-03-16T01:21:03;10.70;;;7.45;;
72273;SDS011;60208;48.692;8.948;2023-03-16T01:23:30;11.45;;;7.55;;
72273;SDS011;60208;48.692;8.948;2023-03-16T01:25:57;10.38;;;7.50;;
72273;SDS011;60208;48.692;8.948;2023-03-16T01:28:24;10.00;;;7.10;;
72273;SDS011;60208;48.692;8.948;2023-03-16T01:30:50;9.93;;;7.10;;
72273;SDS011;60208;48.692;8.948;2023-03-16T01:33:22;10.40;;;7.55;;
72273;SDS011;60208;48.692;8.948;2023-03-16T01:36:00;11.32;;;7.85;;
72273;SDS011;60208;48.692;8.948;2023-03-16T01:38:26;9.68;;;7.28;;
72273;SDS011;60208;48.692;8.948;2023-03-16T01:40:52;9.90;;;8.00;;
72273;SDS011;60208;48.692;8.948;2023-03-16T01:43:18;9.50;;;7.75;;
72273;SDS011;60208;48.692;8.948;2023-03-16T01:48:24;33.92;;;11.32;;
72273;SDS011;60208;48.692;8.948;2023-03-16T01:50:50;26.10;;;11.23;;
72273;SDS011;60208;48.692;8.948;2023-03-16T01:53:16;26.00;;;12.30;;
72273;SDS011;60208;48.692;8.948;2023-03-16T01:55:42;13.98;;;8.57;;
72273;SDS011;60208;48.692;8.948;2023-03-16T01:58:07;12.98;;;8.63;;
72273;SDS011;60208;48.692;8.948;2023-03-16T02:00:33;12.88;;;8.30;;
72273;SDS011;60208;48.692;8.948;2023-03-16T02:03:09;12.82;;;9.23;;
72273;SDS011;60208;48.692;8.948;2023-03-16T02:05:52;12.05;;;8.70;;
72273;SDS011;60208;48.692;8.948;2023-03-16T02:08:18;11.65;;;8.80;;
72273;SDS011;60208;48.692;8.948;2023-03-16T02:10:44;17.73;;;12.02;;
72273;SDS011;60208;48.692;8.948;2023-03-16T02:13:09;21.75;;;13.63;;
72273;SDS011;60208;48.692;8.948;2023-03-16T02:15:35;18.02;;;12.05;;
72273;SDS011;60208;48.692;8.948;2023-03-16T02:18:00;15.80;;;11.18;;
72273;SDS011;60208;48.692;8.948;2023-03-16T02:20:41;16.50;;;11.57;;
72273;SDS011;60208;48.692;8.948;2023-03-16T02:23:10;15.13;;;11.30;;
72273;SDS011;60208;48.692;8.948;2023-03-16T02:31:06;20.75;;;12.43;;
72273;SDS011;60208;48.692;8.948;2023-03-16T02:33:31;16.25;;;11.50;;
72273;SDS011;60208;48.692;8.948;2023-03-16T02:35:57;21.52;;;13.73;;
72273;SDS011;60208;48.692;8.948;2023-03-16T02:38:23;19.52;;;12.52;;
72273;SDS011;60208;48.692;8.948;2023-03-16T02:40:56;16.15;;;11.50;;
72273;SDS011;60208;48.692;8.948;2023-03-16T02:43:23;16.77;;;11.45;;
72273;SDS011;60208;48.692;8.948;2023-03-16T02:45:54;16.15;;;11.23;;
72273;SDS011;60208;48.692;8.948;2023-03-16T02:51:01;17.75;;;12.73;;
72273;SDS011;60208;48.692;8.948;2023-03-16T02:53:26;18.65;;;12.18;;
72273;SDS011;60208;48.692;8.948;2023-03-16T02:55:51;15.70;;;11.63;;
72273;SDS011;60208;48.692;8.948;2023-03-16T02:58:17;17.40;;;12.57;;
72273;SDS011;60208;48.692;8.948;2023-03-16T03:00:42;16.02;;;12.40;;
72273;SDS011;60208;48.692;8.948;2023-03-16T03:03:09;18.55;;;13.80;;
72273;SDS011;60208;48.692;8.948;2023-03-16T03:05:34;20.25;;;12.98;;
72273;SDS011;60208;48.692;8.948;2023-03-16T03:08:00;16.40;;;11.88;;
72273;SDS011;60208;48.692;8.948;2023-03-16T03:10:25;13.90;;;10.65;;
72273;SDS011;60208;48.692;8.948;2023-03-16T03:12:51;15.68;;;9.90;;
72273;SDS011;60208;48.692;8.948;2023-03-16T03:15:17;14.63;;;9.52;;
72273;SDS011;60208;48.692;8.948;2023-03-16T03:17:43;14.32;;;9.32;;
72273;SDS011;60208;48.692;8.948;2023-03-16T03:20:09;14.02;;;9.75;;
72273;SDS011;60208;48.692;8.948;2023-03-16T03:22:40;62.33;;;12.60;;
72273;SDS011;60208;48.692;8.948;2023-03-16T03:25:05;14.35;;;11.13;;
72273;SDS011;60208;48.692;8.948;2023-03-16T03:27:30;33.10;;;12.68;;
72273;SDS011;60208;48.692;8.948;2023-03-16T03:29:57;17.55;;;12.43;;
72273;SDS011;60208;48.692;8.948;2023-03-16T03:32:22;17.73;;;12.32;;
72273;SDS011;60208;48.692;8.948;2023-03-16T03:34:47;17.42;;;12.60;;
72273;SDS011;60208;48.692;8.948;2023-03-16T03:37:12;22.15;;;13.60;;
72273;SDS011;60208;48.692;8.948;2023-03-16T03:39:38;54.90;;;14.32;;
72273;SDS011;60208;48.692;8.948;2023-03-16T03:42:04;31.92;;;13.85;;
72273;SDS011;60208;48.692;8.948;2023-03-16T03:44:30;16.80;;;13.25;;
72273;SDS011;60208;48.692;8.948;2023-03-16T03:46:58;20.65;;;12.90;;
72273;SDS011;60208;48.692;8.948;2023-03-16T03:49:23;22.60;;;13.77;;
72273;SDS011;60208;48.692;8.948;2023-03-16T03:51:49;16.48;;;12.07;;
72273;SDS011;60208;48.692;8.948;2023-03-16T03:54:14;21.80;;;12.98;;
72273;SDS011;60208;48.692;8.948;2023-03-16T03:56:39;16.75;;;13.15;;
72273;SDS011;60208;48.692;8.948;2023-03-16T03:59:04;16.10;;;11.88;;
72273;SDS011;60208;48.692;8.948;2023-03-16T04:01:30;16.42;;;12.38;;
72273;SDS011;60208;48.692;8.948;2023-03-16T04:03:56;14.68;;;11.13;;
72273;SDS011;60208;48.692;8.948;2023-03-16T04:06:21;12.63;;;10.98;;
72273;SDS011;60208;48.692;8.948;2023-03-16T04:08:46;14.80;;;11.93;;
72273;SDS011;60208;48.692;8.948;2023-03-16T04:11:12;13.52;;;10.85;;
72273;SDS011;60208;48.692;8.948;2023-03-16T04:13:37;13.70;;;10.85;;
72273;SDS011;60208;48.692;8.948;2023-03-16T04:16:03;14.43;;;11.20;;
72273;SDS011;60208;48.692;8.948;2023-03-16T04:18:28;14.13;;;11.35;;
72273;SDS011;60208;48.692;8.948;2023-03-16T04:20:54;14.73;;;11.93;;
72273;SDS011;60208;48.692;8.948;2023-03-16T04:23:19;13.50;;;11.20;;
72273;SDS011;60208;48.692;8.948;2023-03-16T04:25:45;16.10;;;12.30;;
72273;SDS011;60208;48.692;8.948;2023-03-16T04:28:10;17.95;;;12.82;;
72273;SDS011;60208;48.692;8.948;2023-03-16T04:30:36;34.03;;;13.15;;
72273;SDS011;60208;48.692;8.948;2023-03-16T04:33:01;33.38;;;13.90;;
72273;SDS011;60208;48.692;8.948;2023-03-16T04:35:26;56.70;;;14.57;;
72273;SDS011;60208;48.692;8.948;2023-03-16T04:37:51;37.20;;;14.48;;
72273;SDS011;60208;48.692;8.948;2023-03-16T04:40:17;44.80;;;14.60;;
72273;SDS011;60208;48.692;8.948;2023-03-16T04:42:44;34.70;;;14.50;;
72273;SDS011;60208;48.692;8.948;2023-03-16T04:45:10;22.48;;;13.40;;
72273;SDS011;60208;48.692;8.948;2023-03-16T04:47:36;59.78;;;13.75;;
72273;SDS011;60208;48.692;8.948;2023-03-16T04:50:01;47.17;;;14.18;;
72273;SDS011;60208;48.692;8.948;2023-03-16T04:52:27;29.77;;;14.00;;
72273;SDS011;60208;48.692;8.948;2023-03-16T04:54:52;46.85;;;13.45;;
72273;SDS011;60208;48.692;8.948;2023-03-16T04:57:18;34.45;;;13.50;;
72273;SDS011;60208;48.692;8.948;2023-03-16T04:59:43;45.40;;;13.07;;
72273;SDS011;60208;48.692;8.948;2023-03-16T05:02:09;31.98;;;13.77;;
72273;SDS011;60208;48.692;8.948;2023-03-16T05:04:34;31.73;;;13.93;;
72273;SDS011;60208;48.692;8.948;2023-03-16T05:06:59;17.35;;;12.88;;
72273;SDS011;60208;48.692;8.948;2023-03-16T05:09:25;16.70;;;12.35;;
72273;SDS011;60208;48.692;8.948;2023-03-16T05:11:50;15.95;;;12.27;;
72273;SDS011;60208;48.692;8.948;2023-03-16T05:14:15;16.17;;;12.15;;
72273;SDS011;60208;48.692;8.948;2023-03-16T05:16:41;16.92;;;12.73;;
72273;SDS011;60208;48.692;8.948;2023-03-16T05:19:06;18.05;;;12.75;;
72273;SDS011;60208;48.692;8.948;2023-03-16T05:21:31;18.23;;;12.77;;
72273;SDS011;60208;48.692;8.948;2023-03-16T05:23:59;18.95;;;12.40;;
72273;SDS011;60208;48.692;8.948;2023-03-16T05:26:24;17.00;;;12.55;;
72273;SDS011;60208;48.692;8.948;2023-03-16T05:28:50;21.15;;;12.27;;
72273;SDS011;60208;48.692;8.948;2023-03-16T05:31:16;22.58;;;12.38;;
72273;SDS011;60208;48.692;8.948;2023-03-16T05:33:41;16.00;;;11.68;;
72273;SDS011;60208;48.692;8.948;2023-03-16T05:36:06;17.63;;;11.65;;
72273;SDS011;60208;48.692;8.948;2023-03-16T05:38:32;15.20;;;11.38;;
72273;SDS011;60208;48.692;8.948;2023-03-16T05:40:57;14.10;;;11.77;;
72273;SDS011;60208;48.692;8.948;2023-03-16T05:43:25;14.93;;;11.80;;
72273;SDS011;60208;48.692;8.948;2023-03-16T05:45:52;14.48;;;11.55;;
72273;SDS011;60208;48.692;8.948;2023-03-16T05:48:18;13.50;;;10.73;;
72273;SDS011;60208;48.692;8.948;2023-03-16T05:50:45;13.98;;;11.43;;
72273;SDS011;60208;48.692;8.948;2023-03-16T05:53:13;12.77;;;11.07;;
72273;SDS011;60208;48.692;8.948;2023-03-16T05:55:39;14.98;;;12.15;;
72273;SDS011;60208;48.692;8.948;2023-03-16T05:58:05;13.63;;;11.65;;
72273;SDS011;60208;48.692;8.948;2023-03-16T06:00:30;14.65;;;11.30;;
72273;SDS011;60208;48.692;8.948;2023-03-16T06:02:55;13.88;;;11.13;;
72273;SDS011;60208;48.692;8.948;2023-03-16T06:05:21;16.48;;;13.02;;
72273;SDS011;60208;48.692;8.948;2023-03-16T06:07:47;14.82;;;12.32;;
72273;SDS011;60208;48.692;8.948;2023-03-16T06:10:12;16.08;;;13.13;;
72273;SDS011;60208;48.692;8.948;2023-03-16T06:12:38;18.88;;;14.05;;
72273;SDS011;60208;48.692;8.948;2023-03-16T06:15:04;20.38;;;15.13;;
72273;SDS011;60208;48.692;8.948;2023-03-16T06:17:33;22.13;;;17.40;;
72273;SDS011;60208;48.692;8.948;2023-03-16T06:19:59;22.45;;;16.50;;
72273;SDS011;60208;48.692;8.948;2023-03-16T06:22:25;22.88;;;16.02;;
72273;SDS011;60208;48.692;8.948;2023-03-16T06:24:51;21.48;;;14.70;;
72273;SDS011;60208;48.692;8.948;2023-03-16T06:27:16;18.23;;;15.50;;
72273;SDS011;60208;48.692;8.948;2023-03-16T06:29:43;32.58;;;23.15;;
72273;SDS011;60208;48.692;8.948;2023-03-16T06:32:09;23.70;;;17.75;;
72273;SDS011;60208;48.692;8.948;2023-03-16T06:34:35;17.83;;;14.15;;
72273;SDS011;60208;48.692;8.948;2023-03-16T06:37:00;19.63;;;15.57;;
72273;SDS011;60208;48.692;8.948;2023-03-16T06:39:26;26.98;;;17.45;;
72273;SDS011;60208;48.692;8.948;2023-03-16T06:41:51;29.40;;;20.58;;
72273;SDS011;60208;48.692;8.948;2023-03-16T06:44:17;24.20;;;16.70;;
72273;SDS011;60208;48.692;8.948;2023-03-16T06:46:42;19.95;;;15.45;;
72273;SDS011;60208;48.692;8.948;2023-03-16T06:49:07;23.98;;;16.88;;
72273;SDS011;60208;48.692;8.948;2023-03-16T06:51:33;31.95;;;22.08;;
72273;SDS011;60208;48.692;8.948;2023-03-16T06:53:58;22.10;;;16.00;;
72273;SDS011;60208;48.692;8.948;2023-03-16T06:56:23;28.00;;;20.10;;
72273;SDS011;60208;48.692;8.948;2023-03-16T06:58:49;22.50;;;16.63;;
72273;SDS011;60208;48.692;8.948;2023-03-16T07:01:15;19.98;;;15.68;;
72273;SDS011;60208;48.692;8.948;2023-03-16T07:03:41;21.17;;;15.70;;
72273;SDS011;60208;48.692;8.948;2023-03-16T07:06:06;20.67;;;15.48;;
72273;SDS011;60208;48.692;8.948;2023-03-16T07:08:32;20.70;;;15.55;;
72273;SDS011;60208;48.692;8.948;2023-03-16T07:10:58;21.00;;;15.65;;
72273;SDS011;60208;48.692;8.948;2023-03-16T07:13:23;21.05;;;15.20;;
72273;SDS011;60208;48.692;8.948;2023-03-16T07:15:49;19.77;;;15.55;;
72273;SDS011;60208;48.692;8.948;2023-03-16T07:18:16;19.40;;;15.63;;
72273;SDS011;60208;48.692;8.948;2023-03-16T07:20:41;24.98;;;16.83;;
72273;SDS011;60208;48.692;8.948;2023-03-16T07:23:06;24.15;;;17.13;;
72273;SDS011;60208;48.692;8.948;2023-03-16T07:25:32;19.95;;;15.93;;
72273;SDS011;60208;48.692;8.948;2023-03-16T07:27:57;22.38;;;16.70;;
72273;SDS011;60208;48.692;8.948;2023-03-16T07:30:22;22.75;;;17.15;;
72273;SDS011;60208;48.692;8.948;2023-03-16T07:32:49;21.48;;;17.90;;
72273;SDS011;60208;48.692;8.948;2023-03-16T07:35:14;21.25;;;17.52;;
72273;SDS011;60208;48.692;8.948;2023-03-16T07:37:41;25.95;;;17.83;;
72273;SDS011;60208;48.692;8.948;2023-03-16T07:40:06;22.60;;;18.20;;
72273;SDS011;60208;48.692;8.948;2023-03-16T07:42:33;21.67;;;17.92;;
72273;SDS011;60208;48.692;8.948;2023-03-16T07:44:59;22.38;;;17.10;;
72273;SDS011;60208;48.692;8.948;2023-03-16T07:47:25;21.75;;;16.95;;
72273;SDS011;60208;48.692;8.948;2023-03-16T07:49:51;19.42;;;16.30;;
72273;SDS011;60208;48.692;8.948;2023-03-16T07:52:16;21.48;;;16.40;;
72273;SDS011;60208;48.692;8.948;2023-03-16T07:54:43;23.65;;;17.77;;
72273;SDS011;60208;48.692;8.948;2023-03-16T07:57:08;20.83;;;15.63;;
72273;SDS011;60208;48.692;8.948;2023-03-16T07:59:33;19.25;;;15.50;;
72273;SDS011;60208;48.692;8.948;2023-03-16T08:01:58;17.80;;;14.57;;
72273;SDS011;60208;48.692;8.948;2023-03-16T08:04:23;17.77;;;14.68;;
72273;SDS011;60208;48.692;8.948;2023-03-16T08:06:49;17.13;;;13.32;;
72273;SDS011;60208;48.692;8.948;2023-03-16T08:09:16;17.25;;;13.93;;
72273;SDS011;60208;48.692;8.948;2023-03-16T08:11:41;17.17;;;14.07;;
72273;SDS011;60208;48.692;8.948;2023-03-16T08:14:06;16.67;;;13.43;;
72273;SDS011;60208;48.692;8.948;2023-03-16T08:16:32;17.80;;;13.70;;
72273;SDS011;60208;48.692;8.948;2023-03-16T08:18:57;17.42;;;12.70;;
72273;SDS011;60208;48.692;8.948;2023-03-16T08:21:23;16.27;;;13.25;;
72273;SDS011;60208;48.692;8.948;2023-03-16T08:23:49;17.88;;;13.30;;
72273;SDS011;60208;48.692;8.948;2023-03-16T08:26:23;15.38;;;12.85;;
72273;SDS011;60208;48.692;8.948;2023-03-16T08:28:49;15.40;;;13.18;;
72273;SDS011;60208;48.692;8.948;2023-03-16T08:31:16;14.82;;;12.65;;
72273;SDS011;60208;48.692;8.948;2023-03-16T08:33:42;12.38;;;10.90;;
72273;SDS011;60208;48.692;8.948;2023-03-16T08:36:08;13.18;;;11.48;;
72273;SDS011;60208;48.692;8.948;2023-03-16T08:38:33;14.65;;;11.32;;
72273;SDS011;60208;48.692;8.948;2023-03-16T08:40:59;14.30;;;11.52;;
72273;SDS011;60208;48.692;8.948;2023-03-16T08:43:24;13.40;;;11.00;;
72273;SDS011;60208;48.692;8.948;2023-03-16T08:45:51;13.20;;;10.73;;
72273;SDS011;60208;48.692;8.948;2023-03-16T08:48:16;14.65;;;11.13;;
72273;SDS011;60208;48.692;8.948;2023-03-16T08:50:42;13.05;;;9.82;;
72273;SDS011;60208;48.692;8.948;2023-03-16T08:53:08;12.57;;;9.32;;
72273;SDS011;60208;48.692;8.948;2023-03-16T08:55:34;11.25;;;9.30;;
72273;SDS011;60208;48.692;8.948;2023-03-16T08:58:00;11.35;;;8.75;;
72273;SDS011;60208;48.692;8.948;2023-03-16T09:00:26;9.05;;;7.43;;
72273;SDS011;60208;48.692;8.948;2023-03-16T09:02:52;13.73;;;8.05;;
72273;SDS011;60208;48.692;8.948;2023-03-16T09:05:19;11.95;;;8.27;;
72273;SDS011;60208;48.692;8.948;2023-03-16T09:07:44;13.30;;;8.32;;
72273;SDS011;60208;48.692;8.948;2023-03-16T09:10:11;8.88;;;6.75;;
72273;SDS011;60208;48.692;8.948;2023-03-16T09:12:39;10.02;;;7.18;;
72273;SDS011;60208;48.692;8.948;2023-03-16T09:15:05;13.32;;;7.47;;
72273;SDS011;60208;48.692;8.948;2023-03-16T09:17:31;11.25;;;7.13;;
72273;SDS011;60208;48.692;8.948;2023-03-16T09:19:56;10.15;;;6.05;;
72273;SDS011;60208;48.692;8.948;2023-03-16T09:22:21;13.20;;;5.85;;
72273;SDS011;60208;48.692;8.948;2023-03-16T09:24:47;8.43;;;4.70;;
72273;SDS011;60208;48.692;8.948;2023-03-16T09:27:13;6.97;;;4.57;;
72273;SDS011;60208;48.692;8.948;2023-03-16T09:29:39;9.13;;;4.60;;
72273;SDS011;60208;48.692;8.948;2023-03-16T09:32:05;6.53;;;3.75;;
72273;SDS011;60208;48.692;8.948;2023-03-16T09:34:30;9.55;;;4.00;;
72273;SDS011;60208;48.692;8.948;2023-03-16T09:36:55;4.90;;;3.80;;
72273;SDS011;60208;48.692;8.948;2023-03-16T09:39:21;7.37;;;3.30;;
72273;SDS011;60208;48.692;8.948;2023-03-16T09:47:00;4.97;;;3.10;;
72273;SDS011;60208;48.692;8.948;2023-03-16T09:49:32;4.25;;;3.08;;
72273;SDS011;60208;48.692;8.948;2023-03-16T09:52:03;4.13;;;2.90;;
72273;SDS011;60208;48.692;8.948;2023-03-16T09:54:35;5.97;;;3.10;;
72273;SDS011;60208;48.692;8.948;2023-03-16T09:57:03;4.32;;;2.70;;
72273;SDS011;60208;48.692;8.948;2023-03-16T09:59:29;4.22;;;2.72;;
72273;SDS011;60208;48.692;8.948;2023-03-16T10:07:08;4.53;;;2.55;;
72273;SDS011;60208;48.692;8.948;2023-03-16T10:09:48;5.05;;;2.40;;
72273;SDS011;60208;48.692;8.948;2023-03-16T10:12:16;5.97;;;2.60;;
72273;SDS011;60208;48.692;8.948;2023-03-16T10:14:47;5.90;;;2.50;;
72273;SDS011;60208;48.692;8.948;2023-03-16T10:17:28;2.40;;;2.20;;
72273;SDS011;60208;48.692;8.948;2023-03-16T10:20:05;3.10;;;2.35;;
72273;SDS011;60208;48.692;8.948;2023-03-16T10:22:34;4.00;;;2.25;;
72273;SDS011;60208;48.692;8.948;2023-03-16T10:25:03;4.05;;;2.40;;
72273;SDS011;60208;48.692;8.948;2023-03-16T10:27:38;3.53;;;2.10;;
72273;SDS011;60208;48.692;8.948;2023-03-16T10:30:09;4.60;;;3.03;;
72273;SDS011;60208;48.692;8.948;2023-03-16T10:32:35;4.97;;;2.80;;
72273;SDS011;60208;48.692;8.948;2023-03-16T10:35:04;4.00;;;2.72;;
72273;SDS011;60208;48.692;8.948;2023-03-16T10:37:31;3.40;;;2.58;;
72273;SDS011;60208;48.692;8.948;2023-03-16T10:39:56;3.70;;;2.28;;
72273;SDS011;60208;48.692;8.948;2023-03-16T10:42:24;2.92;;;2.13;;
72273;SDS011;60208;48.692;8.948;2023-03-16T10:44:55;4.55;;;2.75;;
72273;SDS011;60208;48.692;8.948;2023-03-16T10:47:22;4.25;;;2.65;;
72273;SDS011;60208;48.692;8.948;2023-03-16T10:49:48;5.00;;;2.70;;
72273;SDS011;60208;48.692;8.948;2023-03-16T10:52:19;5.20;;;2.40;;
72273;SDS011;60208;48.692;8.948;2023-03-16T10:54:57;2.63;;;1.70;;
72273;SDS011;60208;48.692;8.948;2023-03-16T10:57:31;4.95;;;2.72;;
72273;SDS011;60208;48.692;8.948;2023-03-16T11:02:37;4.40;;;2.13;;
72273;SDS011;60208;48.692;8.948;2023-03-16T11:07:38;4.57;;;2.30;;
72273;SDS011;60208;48.692;8.948;2023-03-16T11:10:11;4.13;;;2.00;;
72273;SDS011;60208;48.692;8.948;2023-03-16T11:12:37;7.20;;;2.78;;
72273;SDS011;60208;48.692;8.948;2023-03-16T11:15:08;2.83;;;2.15;;
72273;SDS011;60208;48.692;8.948;2023-03-16T11:17:38;5.53;;;1.80;;
72273;SDS011;60208;48.692;8.948;2023-03-16T11:20:14;4.32;;;1.90;;
72273;SDS011;60208;48.692;8.948;2023-03-16T11:22:41;3.03;;;1.85;;
72273;SDS011;60208;48.692;8.948;2023-03-16T11:27:42;3.55;;;2.20;;
72273;SDS011;60208;48.692;8.948;2023-03-16T11:30:12;2.75;;;1.92;;
72273;SDS011;60208;48.692;8.948;2023-03-16T11:32:39;2.53;;;1.70;;
72273;SDS011;60208;48.692;8.948;2023-03-16T11:35:15;2.38;;;1.80;;
72273;SDS011;60208;48.692;8.948;2023-03-16T11:40:44;3.05;;;1.40;;
72273;SDS011;60208;48.692;8.948;2023-03-16T11:46:10;2.05;;;1.65;;
72273;SDS011;60208;48.692;8.948;2023-03-16T11:56:23;3.58;;;1.50;;
72273;SDS011;60208;48.692;8.948;2023-03-16T12:01:30;2.85;;;1.70;;
72273;SDS011;60208;48.692;8.948;2023-03-16T12:04:01;2.50;;;1.90;;
72273;SDS011;60208;48.692;8.948;2023-03-16T12:12:09;6.57;;;1.67;;
72273;SDS011;60208;48.692;8.948;2023-03-16T12:14:42;2.53;;;1.42;;
72273;SDS011;60208;48.692;8.948;2023-03-16T12:22:27;3.05;;;1.55;;
72273;SDS011;60208;48.692;8.948;2023-03-16T12:24:54;2.22;;;1.40;;
72273;SDS011;60208;48.692;8.948;2023-03-16T12:27:24;2.22;;;1.30;;
72273;SDS011;60208;48.692;8.948;2023-03-16T12:32:47;2.03;;;1.60;;
72273;SDS011;60208;48.692;8.948;2023-03-16T12:35:26;1.98;;;1.42;;
72273;SDS011;60208;48.692;8.948;2023-03-16T12:38:17;2.58;;;1.30;;
72273;SDS011;60208;48.692;8.948;2023-03-16T12:40:58;4.28;;;2.03;;
72273;SDS011;60208;48.692;8.948;2023-03-16T12:46:13;3.60;;;1.48;;
72273;SDS011;60208;48.692;8.948;2023-03-16T12:51:04;4.05;;;1.80;;
72273;SDS011;60208;48.692;8.948;2023-03-16T12:53:43;5.15;;;2.08;;
72273;SDS011;60208;48.692;8.948;2023-03-16T12:56:10;3.40;;;1.70;;
72273;SDS011;60208;48.692;8.948;2023-03-16T12:58:39;3.45;;;1.67;;
72273;SDS011;60208;48.692;8.948;2023-03-16T13:01:07;2.15;;;1.40;;
72273;SDS011;60208;48.692;8.948;2023-03-16T13:03:34;1.95;;;1.40;;
72273;SDS011;60208;48.692;8.948;2023-03-16T13:06:00;2.08;;;1.40;;
72273;SDS011;60208;48.692;8.948;2023-03-16T13:08:27;2.05;;;1.38;;
72273;SDS011;60208;48.692;8.948;2023-03-16T13:11:08;1.90;;;1.40;;
72273;SDS011;60208;48.692;8.948;2023-03-16T13:13:34;4.07;;;1.60;;
72273;SDS011;60208;48.692;8.948;2023-03-16T13:16:04;2.10;;;1.50;;
72273;SDS011;60208;48.692;8.948;2023-03-16T13:18:35;2.58;;;1.58;;
72273;SDS011;60208;48.692;8.948;2023-03-16T13:21:00;5.00;;;1.70;;
72273;SDS011;60208;48.692;8.948;2023-03-16T13:26:16;2.22;;;1.67;;
72273;SDS011;60208;48.692;8.948;2023-03-16T13:28:43;1.63;;;1.33;;
72273;SDS011;60208;48.692;8.948;2023-03-16T13:33:54;4.25;;;1.60;;
72273;SDS011;60208;48.692;8.948;2023-03-16T13:36:21;5.20;;;1.52;;
72273;SDS011;60208;48.692;8.948;2023-03-16T13:39:02;2.30;;;1.40;;
72273;SDS011;60208;48.692;8.948;2023-03-16T13:41:28;2.63;;;1.60;;
72273;SDS011;60208;48.692;8.948;2023-03-16T13:43:57;2.50;;;1.50;;
72273;SDS011;60208;48.692;8.948;2023-03-16T13:46:27;1.83;;;1.20;;
72273;SDS011;60208;48.692;8.948;2023-03-16T13:48:53;3.97;;;2.50;;
72273;SDS011;60208;48.692;8.948;2023-03-16T13:51:19;3.30;;;2.78;;
72273;SDS011;60208;48.692;8.948;2023-03-16T13:53:48;3.38;;;1.50;;
72273;SDS011;60208;48.692;8.948;2023-03-16T13:56:20;2.65;;;1.60;;
72273;SDS011;60208;48.692;8.948;2023-03-16T13:58:46;2.55;;;1.33;;
72273;SDS011;60208;48.692;8.948;2023-03-16T14:01:19;4.22;;;1.60;;
72273;SDS011;60208;48.692;8.948;2023-03-16T14:03:48;1.95;;;1.38;;
72273;SDS011;60208;48.692;8.948;2023-03-16T14:06:20;2.03;;;1.73;;
72273;SDS011;60208;48.692;8.948;2023-03-16T14:08:46;3.60;;;1.40;;
72273;SDS011;60208;48.692;8.948;2023-03-16T14:11:13;2.47;;;1.10;;
72273;SDS011;60208;48.692;8.948;2023-03-16T14:13:39;1.70;;;1.35;;
72273;SDS011;60208;48.692;8.948;2023-03-16T14:16:17;2.40;;;1.27;;
72273;SDS011;60208;48.692;8.948;2023-03-16T14:18:44;2.42;;;1.58;;
72273;SDS011;60208;48.692;8.948;2023-03-16T14:21:16;2.35;;;1.52;;
72273;SDS011;60208;48.692;8.948;2023-03-16T14:23:44;2.65;;;1.50;;
72273;SDS011;60208;48.692;8.948;2023-03-16T14:26:14;3.95;;;1.60;;
72273;SDS011;60208;48.692;8.948;2023-03-16T14:28:41;3.00;;;1.67;;
72273;SDS011;60208;48.692;8.948;2023-03-16T14:31:18;2.58;;;1.50;;
72273;SDS011;60208;48.692;8.948;2023-03-16T14:33:43;2.80;;;1.60;;
72273;SDS011;60208;48.692;8.948;2023-03-16T14:36:14;2.60;;;1.60;;
72273;SDS011;60208;48.692;8.948;2023-03-16T14:38:43;2.60;;;1.67;;
72273;SDS011;60208;48.692;8.948;2023-03-16T14:41:29;3.45;;;1.60;;
72273;SDS011;60208;48.692;8.948;2023-03-16T14:43:59;4.32;;;2.10;;
72273;SDS011;60208;48.692;8.948;2023-03-16T14:46:28;2.05;;;1.67;;
72273;SDS011;60208;48.692;8.948;2023-03-16T14:49:07;2.00;;;1.50;;
72273;SDS011;60208;48.692;8.948;2023-03-16T14:51:37;1.60;;;1.42;;
72273;SDS011;60208;48.692;8.948;2023-03-16T14:54:11;3.03;;;1.75;;
72273;SDS011;60208;48.692;8.948;2023-03-16T14:59:01;3.50;;;1.53;;
72273;SDS011;60208;48.692;8.948;2023-03-16T15:01:27;2.20;;;1.47;;
72273;SDS011;60208;48.692;8.948;2023-03-16T15:03:52;1.75;;;1.38;;
72273;SDS011;60208;48.692;8.948;2023-03-16T15:08:47;2.13;;;1.50;;
72273;SDS011;60208;48.692;8.948;2023-03-16T15:11:14;2.78;;;1.80;;
72273;SDS011;60208;48.692;8.948;2023-03-16T15:13:45;2.13;;;1.58;;
72273;SDS011;60208;48.692;8.948;2023-03-16T15:16:11;3.40;;;1.80;;
72273;SDS011;60208;48.692;8.948;2023-03-16T15:18:38;2.45;;;1.60;;
72273;SDS011;60208;48.692;8.948;2023-03-16T15:21:08;2.00;;;1.42;;
72273;SDS011;60208;48.692;8.948;2023-03-16T15:23:36;7.20;;;1.60;;
72273;SDS011;60208;48.692;8.948;2023-03-16T15:26:01;2.20;;;1.40;;
72273;SDS011;60208;48.692;8.948;2023-03-16T15:28:29;4.20;;;1.90;;
72273;SDS011;60208;48.692;8.948;2023-03-16T15:30:59;2.22;;;1.45;;
72273;SDS011;60208;48.692;8.948;2023-03-16T15:33:25;2.28;;;1.60;;
72273;SDS011;60208;48.692;8.948;2023-03-16T15:35:51;2.25;;;1.67;;
72273;SDS011;60208;48.692;8.948;2023-03-16T15:40:43;4.93;;;1.73;;
72273;SDS011;60208;48.692;8.948;2023-03-16T15:43:17;1.75;;;1.40;;
72273;SDS011;60208;48.692;8.948;2023-03-16T15:48:08;2.53;;;1.50;;
72273;SDS011;60208;48.692;8.948;2023-03-16T15:50:33;5.05;;;1.55;;
72273;SDS011;60208;48.692;8.948;2023-03-16T15:53:02;2.95;;;1.40;;